createdAt,value
2019-01-17T00:00:25.508Z,-430.53
2019-01-17T00:01:25.708Z,-432.31
2019-01-17T00:02:25.845Z,-428.19
2019-01-17T00:03:26.017Z,-431.07
2019-01-17T00:04:26.206Z,-427.69
2019-01-17T00:05:26.406Z,-429.07
2019-01-17T00:06:26.479Z,-429.52
2019-01-17T00:07:26.610Z,-428.09
2019-01-17T00:08:26.795Z,-428.53
2019-01-17T00:09:26.928Z,-430.61
2019-01-17T00:10:27.065Z,-429.38
2019-01-17T00:11:27.227Z,-429.23
2019-01-17T00:12:27.387Z,-432.89
2019-01-17T00:13:27.661Z,-430.18
2019-01-17T00:14:27.725Z,-432.34
2019-01-17T00:15:27.870Z,-431.88
2019-01-17T00:16:28.019Z,-430.07
2019-01-17T00:17:28.179Z,-428.58
2019-01-17T00:18:28.349Z,-432.84
2019-01-17T00:19:28.540Z,-430.15
2019-01-17T00:20:28.675Z,-428.81
2019-01-17T00:21:28.877Z,-432.48
2019-01-17T00:22:28.946Z,-430.06
2019-01-17T00:23:29.126Z,-431.73
2019-01-17T00:24:29.328Z,-431.78
2019-01-17T00:25:29.446Z,-432.85
2019-01-17T00:26:29.633Z,-431.36
2019-01-17T00:27:29.749Z,-430.13
2019-01-17T00:28:29.887Z,-430.75
2019-01-17T00:29:30.134Z,-431.80
2019-01-17T00:30:30.228Z,-431.76
2019-01-17T00:31:30.410Z,-431.83
2019-01-17T00:32:30.546Z,-431.88
2019-01-17T00:33:30.701Z,-431.85
2019-01-17T00:34:30.877Z,-433.08
2019-01-17T00:35:32.154Z,-430.21
2019-01-17T00:36:31.197Z,-431.03
2019-01-17T00:37:31.359Z,-431.45
2019-01-17T00:38:31.570Z,-428.42
2019-01-17T00:39:32.151Z,-430.18
2019-01-17T00:40:31.812Z,-427.04
2019-01-17T00:41:31.965Z,-429.71
2019-01-17T00:42:32.111Z,-430.56
2019-01-17T00:43:32.255Z,-429.14
2019-01-17T00:44:32.426Z,-429.65
2019-01-17T00:45:32.562Z,-431.67
2019-01-17T00:46:32.833Z,-430.69
2019-01-17T00:47:32.876Z,-429.21
2019-01-17T00:48:33.033Z,-430.96
2019-01-17T00:49:33.207Z,-429.77
2019-01-17T00:50:33.344Z,-431.15
2019-01-17T00:51:33.521Z,-431.83
2019-01-17T00:52:33.658Z,-428.49
2019-01-17T00:53:33.810Z,-431.00
2019-01-17T00:54:34.067Z,-431.44
2019-01-17T00:55:34.104Z,-431.62
2019-01-17T00:56:34.287Z,-430.09
2019-01-17T00:57:34.429Z,-432.46
2019-01-17T00:58:34.583Z,-430.84
2019-01-17T00:59:34.759Z,-428.98
2019-01-17T01:00:34.909Z,-431.12
2019-01-17T01:01:35.063Z,-430.57
2019-01-17T01:02:35.234Z,-430.40
2019-01-17T01:03:35.339Z,-431.25
2019-01-17T01:04:35.516Z,-430.41
2019-01-17T01:05:35.661Z,-431.00
2019-01-17T01:06:35.815Z,-431.65
2019-01-17T01:07:35.934Z,-428.60
2019-01-17T01:08:36.093Z,-429.73
2019-01-17T01:09:36.519Z,-428.23
2019-01-17T01:10:36.463Z,-429.29
2019-01-17T01:11:36.675Z,-429.06
2019-01-17T01:12:36.766Z,-429.56
2019-01-17T01:13:36.913Z,-430.47
2019-01-17T01:14:37.090Z,-430.35
2019-01-17T01:15:37.229Z,-430.67
2019-01-17T01:16:37.381Z,-429.66
2019-01-17T01:17:37.535Z,-429.21
2019-01-17T01:18:37.706Z,-430.24
2019-01-17T01:19:37.966Z,-430.05
2019-01-17T01:20:37.993Z,-432.37
2019-01-17T01:21:38.145Z,-428.56
2019-01-17T01:22:38.319Z,-430.75
2019-01-17T01:23:38.478Z,-430.75
2019-01-17T01:24:38.622Z,-430.60
2019-01-17T01:25:38.774Z,-430.58
2019-01-17T01:26:38.943Z,-429.63
2019-01-17T01:27:39.275Z,-428.40
2019-01-17T01:28:39.253Z,-431.08
2019-01-17T01:29:39.411Z,-428.61
2019-01-17T01:30:39.576Z,-427.93
2019-01-17T01:31:39.708Z,-428.65
2019-01-17T01:32:39.887Z,-427.03
2019-01-17T01:33:40.021Z,-429.91
2019-01-17T01:34:40.194Z,-428.00
2019-01-17T01:35:40.387Z,-428.73
2019-01-17T01:36:40.467Z,-427.59
2019-01-17T01:37:40.644Z,-428.61
2019-01-17T01:38:40.779Z,-428.39
2019-01-17T01:39:40.953Z,-429.31
2019-01-17T01:40:41.106Z,-428.68
2019-01-17T01:41:41.228Z,-429.65
2019-01-17T01:42:41.411Z,-430.38
2019-01-17T01:43:41.602Z,-429.24
2019-01-17T01:44:41.698Z,-428.99
2019-01-17T01:45:41.857Z,-431.05
2019-01-17T01:46:41.985Z,-429.00
2019-01-17T01:47:42.164Z,-427.59
2019-01-17T01:48:42.314Z,-429.29
2019-01-17T01:49:42.486Z,-427.76
2019-01-17T01:50:45.164Z,-429.51
2019-01-17T01:51:46.158Z,-428.63
2019-01-17T01:52:43.019Z,-429.54
2019-01-17T01:53:43.096Z,-429.87
2019-01-17T01:54:43.275Z,-428.06
2019-01-17T01:55:43.405Z,-426.64
2019-01-17T01:56:43.555Z,-427.35
2019-01-17T01:57:43.729Z,-429.02
2019-01-17T01:58:43.849Z,-429.05
2019-01-17T01:59:44.060Z,-430.24
2019-01-17T02:00:44.269Z,-424.56
2019-01-17T02:01:44.344Z,-425.92
2019-01-17T02:02:44.476Z,-426.00
2019-01-17T02:03:44.617Z,-425.41
2019-01-17T02:04:44.801Z,-426.99
2019-01-17T02:05:44.943Z,-426.66
2019-01-17T02:06:45.123Z,-425.67
2019-01-17T02:07:45.277Z,-428.03
2019-01-17T02:08:45.528Z,-425.68
2019-01-17T02:09:45.566Z,-427.46
2019-01-17T02:10:45.710Z,-426.38
2019-01-17T02:11:45.880Z,-426.37
2019-01-17T02:12:46.036Z,-423.22
2019-01-17T02:13:46.177Z,-425.54
2019-01-17T02:14:46.339Z,-424.40
2019-01-17T02:15:46.483Z,-423.28
2019-01-17T02:16:46.781Z,-424.58
2019-01-17T02:17:46.812Z,-424.35
2019-01-17T02:18:46.950Z,-425.15
2019-01-17T02:19:47.104Z,-426.15
2019-01-17T02:20:47.236Z,-425.09
2019-01-17T02:21:47.414Z,-425.52
2019-01-17T02:22:47.570Z,-425.17
2019-01-17T02:23:47.708Z,-426.04
2019-01-17T02:24:47.941Z,-424.52
2019-01-17T02:25:48.065Z,-425.07
2019-01-17T02:26:48.211Z,-422.65
2019-01-17T02:27:48.390Z,-424.64
2019-01-17T02:28:48.525Z,-424.42
2019-01-17T02:29:48.679Z,-424.94
2019-01-17T02:30:48.843Z,-426.10
2019-01-17T02:31:49.001Z,-423.02
2019-01-17T02:32:49.173Z,-426.65
2019-01-17T02:33:49.444Z,-425.74
2019-01-17T02:34:49.462Z,-424.99
2019-01-17T02:35:49.633Z,-423.53
2019-01-17T02:36:49.765Z,-424.13
2019-01-17T02:37:49.942Z,-425.50
2019-01-17T02:38:50.120Z,-424.64
2019-01-17T02:39:50.233Z,-424.35
2019-01-17T02:40:55.126Z,-426.47
2019-01-17T02:41:50.703Z,-424.73
2019-01-17T02:42:50.705Z,-424.52
2019-01-17T02:43:50.860Z,-425.39
2019-01-17T02:44:51.027Z,-425.18
2019-01-17T02:45:51.403Z,-424.93
2019-01-17T02:46:51.345Z,-426.66
2019-01-17T02:47:51.506Z,-425.24
2019-01-17T02:48:51.623Z,-429.38
2019-01-17T02:49:52.057Z,-428.75
2019-01-17T02:50:51.946Z,-428.54
2019-01-17T02:51:52.112Z,-429.24
2019-01-17T02:52:52.270Z,-431.28
2019-01-17T02:53:52.389Z,-431.32
2019-01-17T02:54:52.551Z,-429.36
2019-01-17T02:55:52.740Z,-429.05
2019-01-17T02:56:52.887Z,-429.55
2019-01-17T02:57:53.080Z,-430.16
2019-01-17T02:58:53.170Z,-433.04
2019-01-17T02:59:53.311Z,-433.39
2019-01-17T03:00:53.492Z,-433.52
2019-01-17T03:01:53.635Z,-433.19
2019-01-17T03:02:53.799Z,-432.45
2019-01-17T03:03:53.937Z,-434.15
2019-01-17T03:04:54.086Z,-434.48
2019-01-17T03:05:54.278Z,-433.90
2019-01-17T03:06:54.432Z,-433.40
2019-01-17T03:07:54.564Z,-434.75
2019-01-17T03:08:54.697Z,-435.30
2019-01-17T03:09:54.854Z,-435.12
2019-01-17T03:10:55.012Z,-435.81
2019-01-17T03:11:55.179Z,-436.14
2019-01-17T03:12:55.369Z,-434.42
2019-01-17T03:13:55.499Z,-433.62
2019-01-17T03:14:55.781Z,-435.37
2019-01-17T03:15:55.791Z,-436.12
2019-01-17T03:16:55.960Z,-436.22
2019-01-17T03:17:56.129Z,-435.47
2019-01-17T03:18:56.249Z,-435.52
2019-01-17T03:19:56.408Z,-434.53
2019-01-17T03:20:56.594Z,-435.00
2019-01-17T03:21:56.689Z,-435.86
2019-01-17T03:22:56.980Z,-436.81
2019-01-17T03:23:57.017Z,-434.72
2019-01-17T03:24:57.176Z,-434.83
2019-01-17T03:25:57.337Z,-437.04
2019-01-17T03:26:57.467Z,-437.39
2019-01-17T03:27:57.672Z,-435.93
2019-01-17T03:28:57.789Z,-435.16
2019-01-17T03:29:57.935Z,-436.54
2019-01-17T03:30:58.184Z,-437.32
2019-01-17T03:31:58.218Z,-435.28
2019-01-17T03:32:58.404Z,-436.60
2019-01-17T03:33:58.547Z,-434.48
2019-01-17T03:34:58.701Z,-435.15
2019-01-17T03:35:58.874Z,-433.43
2019-01-17T03:36:59.006Z,-434.72
2019-01-17T03:37:59.187Z,-434.83
2019-01-17T03:38:59.352Z,-434.79
2019-01-17T03:39:59.444Z,-435.01
2019-01-17T03:40:59.632Z,-436.89
2019-01-17T03:41:59.757Z,-434.61
2019-01-17T03:42:59.948Z,-434.88
2019-01-17T03:44:04.607Z,-434.07
2019-01-17T03:45:00.229Z,-433.22
2019-01-17T03:46:00.407Z,-434.03
2019-01-17T03:47:00.558Z,-435.30
2019-01-17T03:48:00.715Z,-436.08
2019-01-17T03:49:00.811Z,-437.21
2019-01-17T03:50:00.941Z,-432.63
2019-01-17T03:51:01.134Z,-434.71
2019-01-17T03:52:01.701Z,-435.04
2019-01-17T03:53:01.447Z,-434.24
2019-01-17T03:54:01.567Z,-435.33
2019-01-17T03:55:01.911Z,-435.66
2019-01-17T03:56:02.042Z,-435.70
2019-01-17T03:57:02.069Z,-435.51
2019-01-17T03:58:02.237Z,-434.48
2019-01-17T03:59:02.382Z,-434.09
2019-01-17T04:00:02.524Z,-435.05
2019-01-17T04:01:02.710Z,-435.45
2019-01-17T04:02:02.849Z,-436.12
2019-01-17T04:03:03.028Z,-433.15
2019-01-17T04:04:03.219Z,-437.23
2019-01-17T04:05:03.305Z,-435.03
2019-01-17T04:06:03.485Z,-435.14
2019-01-17T04:07:03.623Z,-432.58
2019-01-17T04:08:03.769Z,-432.27
2019-01-17T04:09:03.955Z,-433.31
2019-01-17T04:10:04.068Z,-433.88
2019-01-17T04:11:04.240Z,-433.92
2019-01-17T04:12:04.445Z,-434.20
2019-01-17T04:13:04.530Z,-433.11
2019-01-17T04:14:04.728Z,-433.65
2019-01-17T04:15:04.839Z,-430.67
2019-01-17T04:16:04.993Z,-434.57
2019-01-17T04:17:05.129Z,-434.53
2019-01-17T04:18:05.294Z,-434.43
2019-01-17T04:19:05.482Z,-435.14
2019-01-17T04:20:05.626Z,-436.59
2019-01-17T04:21:05.877Z,-435.96
2019-01-17T04:22:05.904Z,-433.96
2019-01-17T04:23:06.074Z,-434.95
2019-01-17T04:24:06.270Z,-432.58
2019-01-17T04:25:06.389Z,-436.20
2019-01-17T04:26:06.788Z,-432.70
2019-01-17T04:27:06.700Z,-431.08
2019-01-17T04:28:06.875Z,-432.88
2019-01-17T04:29:07.109Z,-433.57
2019-01-17T04:30:07.176Z,-433.71
2019-01-17T04:31:07.345Z,-431.87
2019-01-17T04:32:07.479Z,-431.19
2019-01-17T04:33:07.629Z,-432.30
2019-01-17T04:34:07.808Z,-431.82
2019-01-17T04:35:07.963Z,-433.05
2019-01-17T04:36:08.126Z,-430.30
2019-01-17T04:37:08.360Z,-430.52
2019-01-17T04:38:08.401Z,-433.33
2019-01-17T04:39:08.584Z,-429.03
2019-01-17T04:40:08.728Z,-429.85
2019-01-17T04:41:08.905Z,-434.35
2019-01-17T04:42:09.038Z,-430.42
2019-01-17T04:43:09.203Z,-429.99
2019-01-17T04:44:09.348Z,-429.68
2019-01-17T04:45:09.585Z,-428.69
2019-01-17T04:46:09.669Z,-433.47
2019-01-17T04:47:09.811Z,-429.90
2019-01-17T04:48:09.980Z,-429.36
2019-01-17T04:49:10.112Z,-430.91
2019-01-17T04:50:10.259Z,-431.92
2019-01-17T04:51:10.424Z,-431.29
2019-01-17T04:52:10.578Z,-430.79
2019-01-17T04:53:10.844Z,-430.45
2019-01-17T04:54:10.883Z,-431.78
2019-01-17T04:55:11.025Z,-431.76
2019-01-17T04:56:11.159Z,-430.61
2019-01-17T04:57:11.343Z,-428.12
2019-01-17T04:58:11.513Z,-429.15
2019-01-17T04:59:11.669Z,-433.09
2019-01-17T05:00:11.809Z,-430.76
2019-01-17T05:01:12.006Z,-431.06
2019-01-17T05:02:12.167Z,-431.24
2019-01-17T05:03:12.322Z,-429.38
2019-01-17T05:04:12.472Z,-430.70
2019-01-17T05:05:12.610Z,-427.71
2019-01-17T05:06:12.764Z,-428.88
2019-01-17T05:07:12.917Z,-429.13
2019-01-17T05:08:13.079Z,-430.95
2019-01-17T05:09:13.250Z,-427.32
2019-01-17T05:10:13.480Z,-429.94
2019-01-17T05:11:13.512Z,-425.72
2019-01-17T05:12:13.697Z,-428.04
2019-01-17T05:13:13.850Z,-428.47
2019-01-17T05:14:14.035Z,-430.52
2019-01-17T05:15:14.153Z,-431.22
2019-01-17T05:16:14.307Z,-421.83
2019-01-17T05:17:14.474Z,-423.32
2019-01-17T05:18:14.728Z,-425.20
2019-01-17T05:19:14.806Z,-428.74
2019-01-17T05:20:14.918Z,-427.55
2019-01-17T05:21:15.073Z,-427.56
2019-01-17T05:22:15.241Z,-424.48
2019-01-17T05:23:15.355Z,-425.88
2019-01-17T05:24:15.563Z,-422.10
2019-01-17T05:25:15.710Z,-424.82
2019-01-17T05:26:15.892Z,-425.04
2019-01-17T05:27:16.027Z,-421.02
2019-01-17T05:28:16.118Z,-425.91
2019-01-17T05:29:16.321Z,-427.46
2019-01-17T05:30:16.469Z,-425.49
2019-01-17T05:31:16.612Z,-426.77
2019-01-17T05:32:16.785Z,-421.76
2019-01-17T05:33:16.923Z,-425.28
2019-01-17T05:34:17.153Z,-424.84
2019-01-17T05:35:17.204Z,-422.31
2019-01-17T05:36:17.377Z,-425.88
2019-01-17T05:37:17.551Z,-422.21
2019-01-17T05:38:17.687Z,-425.65
2019-01-17T05:39:17.872Z,-422.94
2019-01-17T05:40:17.978Z,-423.18
2019-01-17T05:41:18.150Z,-425.64
2019-01-17T05:42:18.352Z,-424.07
2019-01-17T05:43:18.527Z,-424.93
2019-01-17T05:44:18.645Z,-425.57
2019-01-17T05:45:18.749Z,-423.13
2019-01-17T05:46:18.933Z,-425.21
2019-01-17T05:47:19.094Z,-423.32
2019-01-17T05:48:19.240Z,-424.43
2019-01-17T05:49:19.412Z,-426.69
2019-01-17T05:50:19.543Z,-426.68
2019-01-17T05:51:19.814Z,-424.04
2019-01-17T05:52:19.873Z,-422.44
2019-01-17T05:53:20.001Z,-423.08
2019-01-17T05:54:20.166Z,-422.37
2019-01-17T05:55:20.427Z,-426.27
2019-01-17T05:56:20.444Z,-423.10
2019-01-17T05:57:20.628Z,-427.72
2019-01-17T05:58:20.769Z,-424.79
2019-01-17T05:59:21.010Z,-426.93
2019-01-17T06:00:21.080Z,-423.03
2019-01-17T06:01:21.228Z,-425.53
2019-01-17T06:02:21.404Z,-427.20
2019-01-17T06:03:21.540Z,-424.49
2019-01-17T06:04:21.692Z,-423.95
2019-01-17T06:05:22.081Z,-426.30
2019-01-17T06:06:22.242Z,-418.81
2019-01-17T06:07:22.438Z,-422.05
2019-01-17T06:08:22.519Z,-421.96
2019-01-17T06:09:22.696Z,-427.03
2019-01-17T06:10:22.865Z,-426.16
2019-01-17T06:11:23.009Z,-427.85
2019-01-17T06:12:23.168Z,-425.12
2019-01-17T06:13:23.302Z,-421.61
2019-01-17T06:14:23.449Z,-425.63
2019-01-17T06:15:23.664Z,-426.98
2019-01-17T06:16:23.801Z,-424.61
2019-01-17T06:17:23.953Z,-426.82
2019-01-17T06:18:24.076Z,-426.14
2019-01-17T06:19:24.236Z,-422.12
2019-01-17T06:20:24.387Z,-428.42
2019-01-17T06:21:24.542Z,-424.05
2019-01-17T06:22:24.712Z,-425.80
2019-01-17T06:23:24.875Z,-425.55
2019-01-17T06:24:25.117Z,-424.72
2019-01-17T06:25:28.127Z,-416.36
2019-01-17T06:26:25.336Z,-421.61
2019-01-17T06:27:25.479Z,-428.87
2019-01-17T06:28:25.617Z,-424.90
2019-01-17T06:29:25.754Z,-428.00
2019-01-17T06:30:25.926Z,-424.23
2019-01-17T06:31:26.085Z,-420.87
2019-01-17T06:32:26.352Z,-423.80
2019-01-17T06:33:26.384Z,-426.16
2019-01-17T06:34:26.566Z,-424.98
2019-01-17T06:35:26.715Z,-421.49
2019-01-17T06:36:26.909Z,-423.93
2019-01-17T06:37:27.035Z,-421.98
2019-01-17T06:38:27.171Z,-424.58
2019-01-17T06:39:27.328Z,-418.89
2019-01-17T06:40:27.546Z,-419.46
2019-01-17T06:41:27.907Z,-422.08
2019-01-17T06:42:27.791Z,-422.19
2019-01-17T06:43:27.927Z,-424.54
2019-01-17T06:44:28.082Z,-422.64
2019-01-17T06:45:30.969Z,-424.14
2019-01-17T06:46:28.478Z,-422.46
2019-01-17T06:47:28.559Z,-425.13
2019-01-17T06:48:28.750Z,-422.77
2019-01-17T06:49:28.846Z,-443.88
2019-01-17T06:50:29.722Z,-448.62
2019-01-17T06:51:29.160Z,-451.72
2019-01-17T06:52:29.309Z,-448.35
2019-01-17T06:53:29.461Z,-446.35
2019-01-17T06:54:29.637Z,-440.57
2019-01-17T06:55:34.435Z,-449.61
2019-01-17T06:56:29.986Z,-447.92
2019-01-17T06:57:30.115Z,-451.38
2019-01-17T06:58:30.266Z,-450.90
2019-01-17T06:59:30.404Z,-452.63
2019-01-17T07:00:30.588Z,-452.73
2019-01-17T07:01:30.701Z,-448.81
2019-01-17T07:02:30.865Z,-452.12
2019-01-17T07:03:31.003Z,-449.68
2019-01-17T07:04:31.183Z,-451.11
2019-01-17T07:05:31.506Z,-450.45
2019-01-17T07:06:31.491Z,-449.99
2019-01-17T07:07:31.646Z,-450.35
2019-01-17T07:08:31.799Z,-449.83
2019-01-17T07:09:31.965Z,-448.46
2019-01-17T07:10:32.160Z,-452.43
2019-01-17T07:11:32.269Z,-449.53
2019-01-17T07:12:32.428Z,-451.35
2019-01-17T07:13:32.688Z,-451.44
2019-01-17T07:14:32.727Z,-451.63
2019-01-17T07:15:33.223Z,-452.16
2019-01-17T07:16:33.030Z,-452.28
2019-01-17T07:17:33.185Z,-455.44
2019-01-17T07:18:33.353Z,-450.19
2019-01-17T07:19:33.475Z,-453.58
2019-01-17T07:20:33.669Z,-449.52
2019-01-17T07:21:33.848Z,-451.48
2019-01-17T07:22:33.955Z,-451.47
2019-01-17T07:23:34.125Z,-448.60
2019-01-17T07:24:34.266Z,-450.46
2019-01-17T07:25:41.093Z,-451.23
2019-01-17T07:26:34.551Z,-446.92
2019-01-17T07:27:34.903Z,-446.75
2019-01-17T07:28:34.892Z,-451.99
2019-01-17T07:29:35.071Z,-448.61
2019-01-17T07:30:35.174Z,-449.78
2019-01-17T07:31:35.302Z,-448.95
2019-01-17T07:32:35.486Z,-449.35
2019-01-17T07:33:35.666Z,-446.75
2019-01-17T07:34:35.801Z,-441.01
2019-01-17T07:35:35.973Z,-448.12
2019-01-17T07:36:36.109Z,-449.08
2019-01-17T07:37:36.287Z,-450.03
2019-01-17T07:38:36.518Z,-450.50
2019-01-17T07:39:36.573Z,-444.37
2019-01-17T07:40:36.753Z,-451.69
2019-01-17T07:41:36.878Z,-450.09
2019-01-17T07:42:37.019Z,-453.97
2019-01-17T07:43:37.416Z,-449.75
2019-01-17T07:44:37.342Z,-448.42
2019-01-17T07:45:37.534Z,-448.78
2019-01-17T07:46:37.766Z,-448.82
2019-01-17T07:47:37.790Z,-448.06
2019-01-17T07:48:37.971Z,-446.70
2019-01-17T07:49:38.118Z,-422.48
2019-01-17T07:50:38.306Z,-425.26
2019-01-17T07:51:38.430Z,-423.67
2019-01-17T07:52:38.592Z,-423.49
2019-01-17T07:53:38.737Z,-423.37
2019-01-17T07:54:38.987Z,-420.97
2019-01-17T07:55:39.070Z,-419.57
2019-01-17T07:56:39.194Z,-423.06
2019-01-17T07:57:39.346Z,-426.40
2019-01-17T07:58:39.518Z,-424.16
2019-01-17T07:59:39.637Z,-420.64
2019-01-17T08:00:39.842Z,-421.34
2019-01-17T08:01:39.970Z,-420.87
2019-01-17T08:02:40.155Z,-422.35
2019-01-17T08:03:40.270Z,-424.71
2019-01-17T08:04:40.454Z,-422.10
2019-01-17T08:05:40.564Z,-419.41
2019-01-17T08:06:40.716Z,-425.14
2019-01-17T08:07:40.879Z,-426.12
2019-01-17T08:08:41.038Z,-425.95
2019-01-17T08:09:41.174Z,-426.63
2019-01-17T08:10:41.374Z,-427.50
2019-01-17T08:11:41.510Z,-424.92
2019-01-17T08:12:41.680Z,-422.04
2019-01-17T08:13:41.834Z,-423.17
2019-01-17T08:14:41.972Z,-423.23
2019-01-17T08:15:42.125Z,-423.70
2019-01-17T08:16:42.294Z,-423.74
2019-01-17T08:17:42.417Z,-425.01
2019-01-17T08:18:42.614Z,-426.45
2019-01-17T08:19:42.845Z,-423.53
2019-01-17T08:20:42.892Z,-424.62
2019-01-17T08:21:43.057Z,-426.54
2019-01-17T08:22:43.230Z,-426.80
2019-01-17T08:23:43.403Z,-425.17
2019-01-17T08:24:43.540Z,-424.65
2019-01-17T08:25:43.693Z,-427.24
2019-01-17T08:26:43.865Z,-425.51
2019-01-17T08:27:44.491Z,-425.13
2019-01-17T08:28:44.179Z,-424.20
2019-01-17T08:29:44.369Z,-427.37
2019-01-17T08:30:44.481Z,-425.58
2019-01-17T08:31:44.656Z,-426.54
2019-01-17T08:32:44.782Z,-428.32
2019-01-17T08:33:44.958Z,-424.36
2019-01-17T08:34:45.113Z,-424.05
2019-01-17T08:35:45.314Z,-429.07
2019-01-17T08:36:45.419Z,-424.30
2019-01-17T08:37:45.575Z,-428.18
2019-01-17T08:38:45.716Z,-428.30
2019-01-17T08:39:45.875Z,-424.90
2019-01-17T08:40:46.022Z,-421.94
2019-01-17T08:41:46.210Z,-424.72
2019-01-17T08:42:46.329Z,-424.94
2019-01-17T08:43:46.574Z,-425.32
2019-01-17T08:44:46.600Z,-426.03
2019-01-17T08:45:46.778Z,-428.94
2019-01-17T08:46:46.964Z,-421.28
2019-01-17T08:47:47.081Z,-423.04
2019-01-17T08:48:47.258Z,-426.24
2019-01-17T08:49:47.399Z,-426.84
2019-01-17T08:50:47.530Z,-427.32
2019-01-17T08:51:47.775Z,-425.91
2019-01-17T08:52:47.907Z,-425.54
2019-01-17T08:53:48.025Z,-430.08
2019-01-17T08:54:48.169Z,-429.30
2019-01-17T08:55:48.307Z,-427.34
2019-01-17T08:56:48.513Z,-426.39
2019-01-17T08:57:48.629Z,-426.78
2019-01-17T08:58:48.799Z,-426.48
2019-01-17T08:59:48.950Z,-429.15
2019-01-17T09:00:49.199Z,-424.65
2019-01-17T09:01:49.295Z,-429.44
2019-01-17T09:02:49.421Z,-428.20
2019-01-17T09:03:49.602Z,-426.32
2019-01-17T09:04:49.731Z,-427.12
2019-01-17T09:05:49.882Z,-426.56
2019-01-17T09:06:50.047Z,-426.07
2019-01-17T09:07:50.191Z,-426.36
2019-01-17T09:08:50.495Z,-427.05
2019-01-17T09:09:50.492Z,-424.75
2019-01-17T09:10:50.629Z,-426.47
2019-01-17T09:11:50.800Z,-427.86
2019-01-17T09:12:50.953Z,-426.78
2019-01-17T09:13:51.138Z,-431.13
2019-01-17T09:14:51.263Z,-428.30
2019-01-17T09:15:51.413Z,-423.35
2019-01-17T09:16:51.632Z,-425.67
2019-01-17T09:17:51.685Z,-425.22
2019-01-17T09:18:51.905Z,-426.79
2019-01-17T09:19:52.015Z,-426.72
2019-01-17T09:20:52.171Z,-429.81
2019-01-17T09:21:52.578Z,-428.07
2019-01-17T09:22:52.475Z,-428.30
2019-01-17T09:23:52.633Z,-424.60
2019-01-17T09:24:52.875Z,-431.68
2019-01-17T09:25:52.946Z,-431.08
2019-01-17T09:26:53.147Z,-426.84
2019-01-17T09:27:53.270Z,-425.62
2019-01-17T09:28:53.427Z,-429.81
2019-01-17T09:29:53.572Z,-428.20
2019-01-17T09:30:53.752Z,-430.21
2019-01-17T09:31:53.929Z,-427.76
2019-01-17T09:32:54.077Z,-430.20
2019-01-17T09:33:54.256Z,-427.29
2019-01-17T09:34:54.366Z,-430.25
2019-01-17T09:35:54.518Z,-428.55
2019-01-17T09:36:54.687Z,-430.03
2019-01-17T09:37:54.817Z,-428.63
2019-01-17T09:38:54.988Z,-428.93
2019-01-17T09:39:55.149Z,-425.15
2019-01-17T09:40:55.275Z,-425.88
2019-01-17T09:41:55.590Z,-427.87
2019-01-17T09:42:55.600Z,-425.25
2019-01-17T09:43:55.809Z,-429.72
2019-01-17T09:44:55.909Z,-428.94
2019-01-17T09:45:56.044Z,-427.03
2019-01-17T09:46:56.236Z,-426.09
2019-01-17T09:47:56.389Z,-427.46
2019-01-17T09:48:56.527Z,-426.30
2019-01-17T09:49:56.804Z,-428.00
2019-01-17T09:50:56.804Z,-425.79
2019-01-17T09:51:56.994Z,-424.98
2019-01-17T09:52:57.146Z,-427.75
2019-01-17T09:53:57.631Z,-425.97
2019-01-17T09:54:57.457Z,-424.23
2019-01-17T09:55:57.592Z,-424.86
2019-01-17T09:56:57.749Z,-433.68
2019-01-17T09:57:57.950Z,-432.48
2019-01-17T09:58:58.034Z,-432.76
2019-01-17T09:59:58.213Z,-432.01
2019-01-17T10:00:58.350Z,-431.75
2019-01-17T10:01:58.544Z,-429.33
2019-01-17T10:02:58.651Z,-428.98
2019-01-17T10:03:58.805Z,-429.08
2019-01-17T10:04:59.004Z,-431.54
2019-01-17T10:05:59.172Z,-431.64
2019-01-17T10:06:59.349Z,-433.04
2019-01-17T10:07:59.437Z,-430.86
2019-01-17T10:08:59.581Z,-432.35
2019-01-17T10:09:59.770Z,-438.08
2019-01-17T10:10:59.906Z,-437.09
2019-01-17T10:12:00.078Z,-434.22
2019-01-17T10:13:00.229Z,-436.24
2019-01-17T10:14:00.385Z,-436.40
2019-01-17T10:15:00.659Z,-440.78
2019-01-17T10:16:00.664Z,-438.18
2019-01-17T10:17:00.845Z,-435.79
2019-01-17T10:18:00.996Z,-434.97
2019-01-17T10:19:01.120Z,-433.51
2019-01-17T10:20:01.306Z,-433.26
2019-01-17T10:21:01.458Z,-435.27
2019-01-17T10:22:01.616Z,-433.87
2019-01-17T10:23:01.919Z,-431.85
2019-01-17T10:24:01.933Z,-429.20
2019-01-17T10:25:02.129Z,-430.69
2019-01-17T10:26:02.266Z,-429.67
2019-01-17T10:27:02.415Z,-429.07
2019-01-17T10:28:02.585Z,-431.89
2019-01-17T10:29:02.725Z,-431.24
2019-01-17T10:30:02.896Z,-426.52
2019-01-17T10:31:03.101Z,-427.82
2019-01-17T10:32:03.170Z,-428.54
2019-01-17T10:33:03.349Z,-430.32
2019-01-17T10:34:03.500Z,-427.20
2019-01-17T10:35:03.671Z,-431.74
2019-01-17T10:36:03.797Z,-431.24
2019-01-17T10:37:03.968Z,-430.94
2019-01-17T10:38:04.167Z,-428.99
2019-01-17T10:39:04.317Z,-430.01
2019-01-17T10:40:04.440Z,-426.09
2019-01-17T10:41:04.576Z,-428.93
2019-01-17T10:42:04.716Z,-426.78
2019-01-17T10:43:04.919Z,-422.35
2019-01-17T10:44:05.050Z,-429.14
2019-01-17T10:45:05.221Z,-428.51
2019-01-17T10:46:05.358Z,-428.63
2019-01-17T10:47:05.544Z,-428.95
2019-01-17T10:48:05.775Z,-432.10
2019-01-17T10:49:05.815Z,-430.77
2019-01-17T10:50:05.998Z,-429.92
2019-01-17T10:51:06.124Z,-428.75
2019-01-17T10:52:06.269Z,-429.67
2019-01-17T10:53:06.449Z,-428.26
2019-01-17T10:54:06.585Z,-429.82
2019-01-17T10:55:06.780Z,-432.81
2019-01-17T10:56:07.055Z,-431.38
2019-01-17T10:57:07.061Z,-429.83
2019-01-17T10:58:07.234Z,-432.18
2019-01-17T10:59:07.369Z,-430.20
2019-01-17T11:00:07.784Z,-427.13
2019-01-17T11:01:07.691Z,-425.17
2019-01-17T11:02:07.850Z,-424.38
2019-01-17T11:03:08.766Z,-427.53
2019-01-17T11:04:08.270Z,-423.61
2019-01-17T11:05:08.323Z,-422.62
2019-01-17T11:06:08.462Z,-437.36
2019-01-17T11:07:08.617Z,-425.83
2019-01-17T11:08:08.806Z,-429.13
2019-01-17T11:09:08.911Z,-431.62
2019-01-17T11:10:09.083Z,-429.76
2019-01-17T11:11:09.234Z,-430.30
2019-01-17T11:12:09.412Z,-429.13
2019-01-17T11:13:09.541Z,-425.43
2019-01-17T11:14:09.702Z,-425.98
2019-01-17T11:15:09.843Z,-429.66
2019-01-17T11:16:09.979Z,-424.96
2019-01-17T11:17:10.162Z,-428.56
2019-01-17T11:18:10.321Z,-429.62
2019-01-17T11:19:10.469Z,-429.40
2019-01-17T11:20:10.669Z,-430.32
2019-01-17T11:21:10.735Z,-427.19
2019-01-17T11:22:10.923Z,-430.96
2019-01-17T11:23:11.093Z,-429.13
2019-01-17T11:24:11.248Z,-428.76
2019-01-17T11:25:11.396Z,-431.04
2019-01-17T11:26:11.541Z,-427.10
2019-01-17T11:27:11.677Z,-429.66
2019-01-17T11:28:11.878Z,-430.41
2019-01-17T11:29:12.107Z,-423.63
2019-01-17T11:30:12.157Z,-432.90
2019-01-17T11:31:12.307Z,-432.28
2019-01-17T11:32:12.447Z,-435.51
2019-01-17T11:33:12.633Z,-436.81
2019-01-17T11:34:12.784Z,-436.33
2019-01-17T11:35:12.920Z,-433.54
2019-01-17T11:36:13.099Z,-431.10
2019-01-17T11:37:13.362Z,-429.66
2019-01-17T11:38:13.417Z,-431.72
2019-01-17T11:39:13.570Z,-433.46
2019-01-17T11:40:13.714Z,-431.47
2019-01-17T11:41:13.892Z,-435.16
2019-01-17T11:42:14.043Z,-434.29
2019-01-17T11:43:14.199Z,-432.74
2019-01-17T11:44:14.361Z,-433.43
2019-01-17T11:45:14.613Z,-436.51
2019-01-17T11:46:14.719Z,-437.64
2019-01-17T11:47:14.817Z,-432.43
2019-01-17T11:48:14.983Z,-432.15
2019-01-17T11:49:15.110Z,-433.29
2019-01-17T11:50:15.275Z,-433.36
2019-01-17T11:51:15.471Z,-431.64
2019-01-17T11:52:15.587Z,-435.40
2019-01-17T11:53:15.793Z,-431.93
2019-01-17T11:54:15.879Z,-430.06
2019-01-17T11:55:16.040Z,-433.12
2019-01-17T11:56:16.221Z,-431.94
2019-01-17T11:57:16.356Z,-429.47
2019-01-17T11:58:16.534Z,-429.63
2019-01-17T11:59:16.686Z,-429.17
2019-01-17T12:00:16.807Z,-430.08
2019-01-17T12:01:17.022Z,-432.34
2019-01-17T12:02:17.192Z,-432.56
2019-01-17T12:03:17.323Z,-431.34
2019-01-17T12:04:17.483Z,-433.84
2019-01-17T12:05:17.613Z,-432.93
2019-01-17T12:06:17.771Z,-430.35
2019-01-17T12:07:17.922Z,-431.71